sensor_id;sensor_type;location;lat;lon;timestamp;temperature;humidity
16060;DHT22;8134;49.552;7.632;2022-08-21T08:52:27;20.30;90.50
16060;DHT22;8134;49.552;7.632;2022-08-21T08:57:30;20.50;89.80
16060;DHT22;8134;49.552;7.632;2022-08-21T08:59:58;20.50;89.60
16060;DHT22;8134;49.552;7.632;2022-08-21T09:02:24;20.60;89.20
16060;DHT22;8134;49.552;7.632;2022-08-21T09:04:52;20.70;89.00
16060;DHT22;8134;49.552;7.632;2022-08-21T09:07:22;20.80;88.00
16060;DHT22;8134;49.552;7.632;2022-08-21T09:12:52;21.20;86.80
16060;DHT22;8134;49.552;7.632;2022-08-21T09:15:24;21.30;86.90
16060;DHT22;8134;49.552;7.632;2022-08-21T09:28:44;21.70;84.40
16060;DHT22;8134;49.552;7.632;2022-08-21T09:31:21;21.80;84.20
16060;DHT22;8134;49.552;7.632;2022-08-21T09:33:47;21.80;83.10
16060;DHT22;8134;49.552;7.632;2022-08-21T09:36:12;21.90;83.00
16060;DHT22;8134;49.552;7.632;2022-08-21T09:38:51;22.00;82.80
16060;DHT22;8134;49.552;7.632;2022-08-21T09:41:24;22.20;81.20
16060;DHT22;8134;49.552;7.632;2022-08-21T13:14:54;24.50;64.80
16060;DHT22;8134;49.552;7.632;2022-08-21T13:17:21;24.70;64.40
16060;DHT22;8134;49.552;7.632;2022-08-21T13:19:52;24.80;63.80
16060;DHT22;8134;49.552;7.632;2022-08-21T13:22:18;25.10;66.30
16060;DHT22;8134;49.552;7.632;2022-08-21T13:24:46;25.30;64.00
16060;DHT22;8134;49.552;7.632;2022-08-21T13:27:23;25.60;65.80
16060;DHT22;8134;49.552;7.632;2022-08-21T13:29:48;25.80;62.70
16060;DHT22;8134;49.552;7.632;2022-08-21T13:32:25;26.10;61.20
16060;DHT22;8134;49.552;7.632;2022-08-21T13:34:52;26.40;64.10
16060;DHT22;8134;49.552;7.632;2022-08-21T13:37:17;26.60;63.60
16060;DHT22;8134;49.552;7.632;2022-08-21T13:39:48;26.70;62.00
16060;DHT22;8134;49.552;7.632;2022-08-21T13:42:13;26.90;61.00
16060;DHT22;8134;49.552;7.632;2022-08-21T13:44:41;27.10;61.20
16060;DHT22;8134;49.552;7.632;2022-08-21T13:47:07;27.10;60.00
16060;DHT22;8134;49.552;7.632;2022-08-21T13:49:39;27.20;60.20
16060;DHT22;8134;49.552;7.632;2022-08-21T13:52:05;27.40;59.90
16060;DHT22;8134;49.552;7.632;2022-08-21T13:54:42;27.50;59.10
16060;DHT22;8134;49.552;7.632;2022-08-21T13:57:16;27.60;59.00
16060;DHT22;8134;49.552;7.632;2022-08-21T13:59:42;27.60;59.80
16060;DHT22;8134;49.552;7.632;2022-08-21T14:02:10;27.60;57.80
16060;DHT22;8134;49.552;7.632;2022-08-21T14:04:38;27.70;57.70
16060;DHT22;8134;49.552;7.632;2022-08-21T14:07:15;27.80;57.90
16060;DHT22;8134;49.552;7.632;2022-08-21T14:09:42;27.80;58.90
16060;DHT22;8134;49.552;7.632;2022-08-21T14:12:27;27.90;57.90
16060;DHT22;8134;49.552;7.632;2022-08-21T14:14:55;28.00;58.80
16060;DHT22;8134;49.552;7.632;2022-08-21T14:17:54;28.10;56.40
16060;DHT22;8134;49.552;7.632;2022-08-21T14:20:29;28.20;57.20
16060;DHT22;8134;49.552;7.632;2022-08-21T14:22:55;28.20;57.10
16060;DHT22;8134;49.552;7.632;2022-08-21T14:30:52;28.20;55.90
16060;DHT22;8134;49.552;7.632;2022-08-21T14:33:20;28.20;54.50
16060;DHT22;8134;49.552;7.632;2022-08-21T14:38:51;28.30;53.20
16060;DHT22;8134;49.552;7.632;2022-08-21T14:41:18;28.40;53.60
16060;DHT22;8134;49.552;7.632;2022-08-21T14:49:37;28.90;55.60
16060;DHT22;8134;49.552;7.632;2022-08-21T14:52:03;28.90;54.40
16060;DHT22;8134;49.552;7.632;2022-08-21T15:00:37;29.00;54.10
16060;DHT22;8134;49.552;7.632;2022-08-21T15:03:30;28.90;53.50
16060;DHT22;8134;49.552;7.632;2022-08-21T15:12:27;29.10;53.30
16060;DHT22;8134;49.552;7.632;2022-08-21T15:30:27;29.70;53.80
16060;DHT22;8134;49.552;7.632;2022-08-21T15:35:55;29.70;52.60
16060;DHT22;8134;49.552;7.632;2022-08-21T15:38:21;29.70;52.80
16060;DHT22;8134;49.552;7.632;2022-08-21T15:40:47;29.80;52.70
16060;DHT22;8134;49.552;7.632;2022-08-21T15:43:40;29.80;52.20
16060;DHT22;8134;49.552;7.632;2022-08-21T15:46:06;29.90;51.50
16060;DHT22;8134;49.552;7.632;2022-08-21T15:48:34;29.70;49.30
16060;DHT22;8134;49.552;7.632;2022-08-21T15:51:13;29.50;49.10
16060;DHT22;8134;49.552;7.632;2022-08-21T15:54:10;29.30;51.40
16060;DHT22;8134;49.552;7.632;2022-08-21T15:56:37;29.40;51.90
16060;DHT22;8134;49.552;7.632;2022-08-21T16:04:50;29.40;52.30
16060;DHT22;8134;49.552;7.632;2022-08-21T16:07:16;29.60;53.50
16060;DHT22;8134;49.552;7.632;2022-08-21T16:12:33;29.50;52.20
16060;DHT22;8134;49.552;7.632;2022-08-21T16:15:02;29.40;52.40
16060;DHT22;8134;49.552;7.632;2022-08-21T16:32:32;29.10;51.40
16060;DHT22;8134;49.552;7.632;2022-08-21T16:35:31;29.00;51.50
16060;DHT22;8134;49.552;7.632;2022-08-21T17:18:39;26.90;61.30
16060;DHT22;8134;49.552;7.632;2022-08-21T17:21:05;26.80;61.00
16060;DHT22;8134;49.552;7.632;2022-08-21T17:29:37;26.60;63.50
16060;DHT22;8134;49.552;7.632;2022-08-21T17:32:05;26.40;63.50
16060;DHT22;8134;49.552;7.632;2022-08-21T17:34:32;26.30;63.80
16060;DHT22;8134;49.552;7.632;2022-08-21T17:36:58;26.20;64.20
16060;DHT22;8134;49.552;7.632;2022-08-21T17:39:24;26.20;63.60
16060;DHT22;8134;49.552;7.632;2022-08-21T17:41:50;26.10;64.00
16060;DHT22;8134;49.552;7.632;2022-08-21T17:44:16;26.00;65.00
16060;DHT22;8134;49.552;7.632;2022-08-21T17:46:44;25.90;65.10
16060;DHT22;8134;49.552;7.632;2022-08-21T17:49:12;25.90;65.30
16060;DHT22;8134;49.552;7.632;2022-08-21T17:57:50;25.70;66.50
16060;DHT22;8134;49.552;7.632;2022-08-21T19:09:54;22.70;75.40
16060;DHT22;8134;49.552;7.632;2022-08-21T19:12:30;22.80;74.50
16060;DHT22;8134;49.552;7.632;2022-08-21T19:15:20;22.80;74.30
16060;DHT22;8134;49.552;7.632;2022-08-21T19:18:16;22.80;75.30
16060;DHT22;8134;49.552;7.632;2022-08-21T19:21:04;22.80;74.50
16060;DHT22;8134;49.552;7.632;2022-08-21T19:23:40;22.90;74.80
16060;DHT22;8134;49.552;7.632;2022-08-21T19:31:20;22.80;74.70
16060;DHT22;8134;49.552;7.632;2022-08-21T22:09:58;22.40;73.60
